PIMOHWEATHER Station Historical Data
Daily Summary for April 20, 2020 Units:  Metric    English   Both
Daily Weekly Monthly Yearly
  High: Low: Average:
Temperature: 37.0 °C 27.0 °C 31.5 °C
Dew Point: 27.0 °C 23.0 °C 25.1 °C
Humidity: 83% 58% 70%
Wind Speed: 28km/h 0km/h 7.9km/h
Wind Gust: 32km/h - -
Wind- - SSE
Pressure: 1012.2 hPa 1007.1 hPa -
Precipitation: 0.00 mm    
 
 
Tabular Data for April 20, 2020
Time Temperature Dew Point Pressure Wind Wind Speed Wind Gust Humidity Rainfall Rate (Hourly) solar
00:04 29.0 °C 23.0 °C 1010.8 hPa ESE 3 km/h 4 km/h 69% 0.00 mm 0.00 W/m2
00:09 29.0 °C 23.0 °C 1011.2 hPa Calm     69% 0.00 mm 0.00 W/m2
00:14 29.0 °C 23.0 °C 1010.8 hPa East 1 km/h 4 km/h 69% 0.00 mm 0.00 W/m2
00:19 29.0 °C 23.0 °C 1010.8 hPa Calm   4 km/h 69% 0.00 mm 0.00 W/m2
00:24 29.0 °C 23.0 °C 1010.8 hPa Calm   4 km/h 69% 0.00 mm 0.00 W/m2
00:29 29.0 °C 23.0 °C 1010.5 hPa Calm   4 km/h 69% 0.00 mm 0.00 W/m2
00:34 29.0 °C 23.0 °C 1010.8 hPa NE 1 km/h 4 km/h 69% 0.00 mm 0.00 W/m2
00:39 29.0 °C 23.0 °C 1010.8 hPa NE 2 km/h 4 km/h 69% 0.00 mm 0.00 W/m2
00:44 29.0 °C 23.0 °C 1010.5 hPa Calm   4 km/h 69% 0.00 mm 0.00 W/m2
00:49 29.0 °C 23.0 °C 1010.5 hPa NNE 3 km/h 4 km/h 69% 0.00 mm 0.00 W/m2
00:54 29.0 °C 23.0 °C 1010.8 hPa NNE 3 km/h 4 km/h 69% 0.00 mm 0.00 W/m2
00:59 29.0 °C 23.0 °C 1010.8 hPa North 6 km/h 8 km/h 70% 0.00 mm 0.00 W/m2
01:04 29.0 °C 23.0 °C 1010.5 hPa NW 5 km/h 8 km/h 71% 0.00 mm 0.00 W/m2
01:09 29.0 °C 23.0 °C 1010.5 hPa NW 6 km/h 8 km/h 72% 0.00 mm 0.00 W/m2
01:14 29.0 °C 23.0 °C 1010.5 hPa NW 6 km/h 8 km/h 72% 0.00 mm 0.00 W/m2
01:19 29.0 °C 23.0 °C 1010.5 hPa NW 1 km/h 4 km/h 73% 0.00 mm 0.00 W/m2
01:24 29.0 °C 23.0 °C 1010.5 hPa Calm     73% 0.00 mm 0.00 W/m2
01:29 29.0 °C 23.0 °C 1010.5 hPa NW 5 km/h 8 km/h 74% 0.00 mm 0.00 W/m2
01:34 28.0 °C 23.0 °C 1010.5 hPa NW 5 km/h 8 km/h 74% 0.00 mm 0.00 W/m2
01:39 28.0 °C 23.0 °C 1010.2 hPa Calm     74% 0.00 mm 0.00 W/m2
01:44 28.0 °C 23.0 °C 1010.2 hPa Calm     74% 0.00 mm 0.00 W/m2
01:49 28.0 °C 23.0 °C 1010.2 hPa NNE 1 km/h 4 km/h 74% 0.00 mm 0.00 W/m2
01:54 28.0 °C 23.0 °C 1010.2 hPa Calm     74% 0.00 mm 0.00 W/m2
01:59 28.0 °C 23.0 °C 1010.2 hPa Calm     75% 0.00 mm 0.00 W/m2
02:04 28.0 °C 24.0 °C 1010.2 hPa North 4 km/h 4 km/h 75% 0.00 mm 0.00 W/m2
02:09 28.0 °C 24.0 °C 1010.2 hPa Calm   4 km/h 77% 0.00 mm 0.00 W/m2
02:14 28.0 °C 24.0 °C 1010.2 hPa NW 5 km/h 8 km/h 78% 0.00 mm 0.00 W/m2
02:19 28.0 °C 24.0 °C 1009.8 hPa NW 3 km/h 4 km/h 79% 0.00 mm 0.00 W/m2
02:24 28.0 °C 24.0 °C 1009.8 hPa NNW 2 km/h 4 km/h 79% 0.00 mm 0.00 W/m2
02:29 28.0 °C 24.0 °C 1009.5 hPa WNW 1 km/h 4 km/h 79% 0.00 mm 0.00 W/m2
02:34 28.0 °C 24.0 °C 1009.5 hPa Calm     79% 0.00 mm 0.00 W/m2
02:39 28.0 °C 24.0 °C 1009.5 hPa Calm     79% 0.00 mm 0.00 W/m2
02:44 28.0 °C 24.0 °C 1009.5 hPa North 3 km/h 4 km/h 79% 0.00 mm 0.00 W/m2
02:49 28.0 °C 24.0 °C 1009.5 hPa North 5 km/h 8 km/h 79% 0.00 mm 0.00 W/m2
02:54 28.0 °C 24.0 °C 1009.5 hPa NNW 5 km/h 8 km/h 79% 0.00 mm 0.00 W/m2
02:59 28.0 °C 24.0 °C 1009.5 hPa NW 7 km/h 8 km/h 79% 0.00 mm 0.00 W/m2
03:04 28.0 °C 24.0 °C 1009.5 hPa NNE 3 km/h 4 km/h 79% 0.00 mm 0.00 W/m2
03:09 27.0 °C 24.0 °C 1009.5 hPa NNE 3 km/h 4 km/h 79% 0.00 mm 0.00 W/m2
03:14 27.0 °C 24.0 °C 1009.5 hPa Calm     79% 0.00 mm 0.00 W/m2
03:19 27.0 °C 23.0 °C 1009.8 hPa Calm     78% 0.00 mm 0.00 W/m2
03:24 27.0 °C 23.0 °C 1009.8 hPa NNW 3 km/h 4 km/h 78% 0.00 mm 0.00 W/m2
03:29 27.0 °C 23.0 °C 1009.8 hPa Calm     78% 0.00 mm 0.00 W/m2
03:34 27.0 °C 23.0 °C 1009.8 hPa North 6 km/h 8 km/h 79% 0.00 mm 0.00 W/m2
03:39 27.0 °C 23.0 °C 1009.8 hPa NW 5 km/h 8 km/h 79% 0.00 mm 0.00 W/m2
03:44 27.0 °C 23.0 °C 1009.8 hPa NNW 5 km/h 8 km/h 79% 0.00 mm 0.00 W/m2
03:49 27.0 °C 23.0 °C 1009.8 hPa NNE 2 km/h 4 km/h 79% 0.00 mm 0.00 W/m2
03:54 27.0 °C 23.0 °C 1009.8 hPa Calm     79% 0.00 mm 0.00 W/m2
03:59 27.0 °C 23.0 °C 1009.8 hPa North 5 km/h 8 km/h 79% 0.00 mm 0.00 W/m2
04:04 27.0 °C 23.0 °C 1009.8 hPa North 5 km/h 8 km/h 79% 0.00 mm 0.00 W/m2
04:09 27.0 °C 23.0 °C 1009.8 hPa NNW 4 km/h 4 km/h 79% 0.00 mm 0.00 W/m2
04:14 27.0 °C 23.0 °C 1009.8 hPa Calm     80% 0.00 mm 0.00 W/m2
04:19 27.0 °C 23.0 °C 1010.2 hPa Calm     79% 0.00 mm 0.00 W/m2
04:24 27.0 °C 23.0 °C 1010.2 hPa Calm     79% 0.00 mm 0.00 W/m2
04:29 27.0 °C 23.0 °C 1010.2 hPa North 5 km/h 8 km/h 79% 0.00 mm 0.00 W/m2
04:34 27.0 °C 23.0 °C 1010.2 hPa North 5 km/h 8 km/h 80% 0.00 mm 0.00 W/m2
04:39 27.0 °C 23.0 °C 1010.2 hPa NNE 3 km/h 4 km/h 80% 0.00 mm 0.00 W/m2
04:44 27.0 °C 23.0 °C 1010.2 hPa NE 1 km/h 4 km/h 80% 0.00 mm 0.00 W/m2
04:49 27.0 °C 23.0 °C 1010.5 hPa Calm     81% 0.00 mm 0.00 W/m2
04:54 27.0 °C 24.0 °C 1010.5 hPa Calm     81% 0.00 mm 0.00 W/m2
04:59 27.0 °C 23.0 °C 1010.5 hPa Calm     81% 0.00 mm 0.00 W/m2
05:04 27.0 °C 23.0 °C 1010.5 hPa Calm     81% 0.00 mm 0.00 W/m2
05:09 27.0 °C 24.0 °C 1010.5 hPa Calm     81% 0.00 mm 0.00 W/m2
05:14 27.0 °C 24.0 °C 1010.5 hPa Calm     81% 0.00 mm 0.00 W/m2
05:19 27.0 °C 24.0 °C 1010.5 hPa Calm     82% 0.00 mm 0.00 W/m2
05:24 27.0 °C 23.0 °C 1010.5 hPa Calm     81% 0.00 mm 0.00 W/m2
05:29 27.0 °C 24.0 °C 1010.5 hPa Calm     81% 0.00 mm 0.00 W/m2
05:34 27.0 °C 24.0 °C 1010.5 hPa Calm     81% 0.00 mm 0.00 W/m2
05:39 27.0 °C 24.0 °C 1010.5 hPa Calm     81% 0.00 mm 1.39 W/m2
05:44 27.0 °C 24.0 °C 1010.5 hPa Calm     81% 0.00 mm 4.71 W/m2
05:49 27.0 °C 24.0 °C 1010.5 hPa Calm     81% 0.00 mm 9.43 W/m2
05:54 27.0 °C 24.0 °C 1010.5 hPa Calm     81% 0.00 mm 16.37 W/m2
05:59 27.0 °C 24.0 °C 1010.5 hPa Calm     80% 0.00 mm 21.66 W/m2
06:04 27.0 °C 24.0 °C 1010.5 hPa North 10 km/h 12 km/h 82% 0.00 mm 27.20 W/m2
06:09 27.0 °C 24.0 °C 1010.5 hPa North 6 km/h 8 km/h 82% 0.00 mm 32.28 W/m2
06:14 27.0 °C 24.0 °C 1010.8 hPa NNE 5 km/h 8 km/h 82% 0.00 mm 36.14 W/m2
06:19 27.0 °C 24.0 °C 1010.8 hPa NNE 5 km/h 8 km/h 83% 0.00 mm 40.75 W/m2
06:24 27.0 °C 24.0 °C 1010.8 hPa Calm   4 km/h 82% 0.00 mm 45.08 W/m2
06:29 27.0 °C 24.0 °C 1010.8 hPa Calm     81% 0.00 mm 60.85 W/m2
06:34 28.0 °C 24.0 °C 1010.8 hPa ESE 1 km/h 4 km/h 79% 0.00 mm 160.33 W/m2
06:39 28.0 °C 24.0 °C 1011.2 hPa NE 3 km/h 4 km/h 79% 0.00 mm 174.35 W/m2
06:44 29.0 °C 24.0 °C 1011.2 hPa ENE 3 km/h 4 km/h 77% 0.00 mm 184.26 W/m2
06:49 29.0 °C 24.0 °C 1011.5 hPa NNE 2 km/h 4 km/h 75% 0.00 mm 193.70 W/m2
06:54 30.0 °C 24.0 °C 1011.2 hPa NE 1 km/h 4 km/h 74% 0.00 mm 203.34 W/m2
06:59 30.0 °C 25.0 °C 1011.2 hPa Calm     71% 0.00 mm 212.66 W/m2
07:04 31.0 °C 25.0 °C 1011.5 hPa Calm     70% 0.00 mm 223.58 W/m2
07:09 31.0 °C 24.0 °C 1011.2 hPa Calm     70% 0.00 mm 233.19 W/m2
07:14 30.0 °C 24.0 °C 1011.5 hPa North 4 km/h 4 km/h 71% 0.00 mm 238.99 W/m2
07:19 30.0 °C 24.0 °C 1011.5 hPa NNE 2 km/h 4 km/h 71% 0.00 mm 247.73 W/m2
07:24 31.0 °C 25.0 °C 1011.9 hPa NNE 5 km/h 12 km/h 70% 0.00 mm 256.39 W/m2
07:29 31.0 °C 25.0 °C 1011.9 hPa North 6 km/h 8 km/h 70% 0.00 mm 269.23 W/m2
07:34 31.0 °C 25.0 °C 1011.9 hPa North 10 km/h 12 km/h 70% 0.00 mm 274.71 W/m2
07:39 30.0 °C 25.0 °C 1012.2 hPa NNW 13 km/h 16 km/h 72% 0.00 mm 283.89 W/m2
07:44 30.0 °C 25.0 °C 1012.2 hPa North 9 km/h 12 km/h 73% 0.00 mm 292.82 W/m2
07:49 30.0 °C 25.0 °C 1011.9 hPa North 9 km/h 12 km/h 72% 0.00 mm 300.82 W/m2
07:54 30.0 °C 25.0 °C 1012.2 hPa NNE 10 km/h 12 km/h 73% 0.00 mm 303.95 W/m2
07:59 30.0 °C 25.0 °C 1012.2 hPa NNW 9 km/h 12 km/h 73% 0.00 mm 311.07 W/m2
08:04 31.0 °C 25.0 °C 1012.2 hPa NNW 5 km/h 8 km/h 72% 0.00 mm 320.03 W/m2
08:09 31.0 °C 25.0 °C 1012.2 hPa NNE 9 km/h 12 km/h 70% 0.00 mm 328.44 W/m2
08:14 31.0 °C 25.0 °C 1012.2 hPa NNE 8 km/h 8 km/h 70% 0.00 mm 336.10 W/m2
08:19 32.0 °C 25.0 °C 1012.2 hPa ENE 8 km/h 8 km/h 69% 0.00 mm 339.65 W/m2
08:24 32.0 °C 25.0 °C 1012.2 hPa NNE 6 km/h 8 km/h 68% 0.00 mm 343.37 W/m2
08:29 32.0 °C 25.0 °C 1012.2 hPa ENE 4 km/h 8 km/h 68% 0.00 mm 353.94 W/m2
08:34 33.0 °C 25.0 °C 1012.2 hPa ESE 6 km/h 8 km/h 65% 0.00 mm 360.37 W/m2
08:39 32.0 °C 25.0 °C 1012.2 hPa ENE 6 km/h 8 km/h 66% 0.00 mm 359.13 W/m2
08:44 32.0 °C 25.0 °C 1012.2 hPa North 8 km/h 8 km/h 66% 0.00 mm 368.72 W/m2
08:49 33.0 °C 25.0 °C 1012.2 hPa ESE 12 km/h 16 km/h 66% 0.00 mm 371.19 W/m2
08:54 32.0 °C 25.0 °C 1012.2 hPa SE 11 km/h 12 km/h 66% 0.00 mm 367.91 W/m2
08:59 33.0 °C 25.0 °C 1012.2 hPa SSE 6 km/h 8 km/h 65% 0.00 mm 375.59 W/m2
09:04 33.0 °C 25.0 °C 1012.2 hPa South 11 km/h 12 km/h 66% 0.00 mm 381.95 W/m2
09:09 33.0 °C 25.0 °C 1012.2 hPa South 10 km/h 12 km/h 65% 0.00 mm 393.89 W/m2
09:14 33.0 °C 26.0 °C 1012.2 hPa SE 9 km/h 12 km/h 65% 0.00 mm 401.11 W/m2
09:19 34.0 °C 26.0 °C 1012.2 hPa South 7 km/h 8 km/h 65% 0.00 mm 413.08 W/m2
09:24 34.0 °C 25.0 °C 1012.2 hPa SE 10 km/h 12 km/h 61% 0.00 mm 422.76 W/m2
09:29 34.0 °C 26.0 °C 1012.2 hPa South 10 km/h 12 km/h 66% 0.00 mm 431.18 W/m2
09:34 33.0 °C 26.0 °C 1012.2 hPa South 14 km/h 16 km/h 67% 0.00 mm 421.42 W/m2
09:39 33.0 °C 26.0 °C 1012.2 hPa SSW 10 km/h 12 km/h 67% 0.00 mm 428.59 W/m2
09:44 33.0 °C 26.0 °C 1011.9 hPa SSE 11 km/h 12 km/h 66% 0.00 mm 430.74 W/m2
09:49 33.0 °C 26.0 °C 1012.2 hPa South 13 km/h 16 km/h 66% 0.00 mm 428.91 W/m2
09:54 33.0 °C 26.0 °C 1011.9 hPa WSW 14 km/h 16 km/h 66% 0.00 mm 432.06 W/m2
09:59 33.0 °C 26.0 °C 1011.9 hPa South 9 km/h 12 km/h 66% 0.00 mm 449.14 W/m2
10:04 33.0 °C 26.0 °C 1012.2 hPa South 10 km/h 12 km/h 65% 0.00 mm 454.77 W/m2
10:09 33.0 °C 26.0 °C 1012.2 hPa South 13 km/h 16 km/h 65% 0.00 mm 453.91 W/m2
10:14 34.0 °C 26.0 °C 1011.9 hPa SSW 10 km/h 16 km/h 64% 0.00 mm 460.98 W/m2
10:19 34.0 °C 26.0 °C 1012.2 hPa SSW 13 km/h 20 km/h 65% 0.00 mm 466.95 W/m2
10:24 33.0 °C 26.0 °C 1012.2 hPa South 13 km/h 20 km/h 67% 0.00 mm 268.30 W/m2
10:29 33.0 °C 26.0 °C 1011.9 hPa SSW 9 km/h 12 km/h 67% 0.00 mm 492.45 W/m2
10:34 33.0 °C 26.0 °C 1011.9 hPa SSW 13 km/h 16 km/h 68% 0.00 mm 484.86 W/m2
10:39 33.0 °C 26.0 °C 1011.9 hPa SW 14 km/h 16 km/h 68% 0.00 mm 454.28 W/m2
10:44 33.0 °C 26.0 °C 1011.9 hPa West 10 km/h 16 km/h 68% 0.00 mm 451.07 W/m2
10:49 33.0 °C 26.0 °C 1011.9 hPa South 10 km/h 16 km/h 66% 0.00 mm 459.42 W/m2
10:54 33.0 °C 26.0 °C 1011.5 hPa West 10 km/h 12 km/h 65% 0.00 mm 468.18 W/m2
10:59 34.0 °C 26.0 °C 1011.5 hPa SSW 11 km/h 16 km/h 66% 0.00 mm 481.78 W/m2
11:04 33.0 °C 26.0 °C 1011.9 hPa WSW 13 km/h 20 km/h 67% 0.00 mm 492.94 W/m2
11:09 34.0 °C 26.0 °C 1011.5 hPa South 12 km/h 16 km/h 67% 0.00 mm 506.12 W/m2
11:14 34.0 °C 26.0 °C 1011.9 hPa South 9 km/h 12 km/h 65% 0.00 mm 503.70 W/m2
11:19 34.0 °C 26.0 °C 1011.5 hPa South 12 km/h 16 km/h 64% 0.00 mm 515.52 W/m2
11:24 33.0 °C 26.0 °C 1011.5 hPa SW 13 km/h 16 km/h 66% 0.00 mm 533.26 W/m2
11:29 34.0 °C 26.0 °C 1011.2 hPa SSW 14 km/h 16 km/h 65% 0.00 mm 446.25 W/m2
11:34 34.0 °C 26.0 °C 1011.2 hPa South 12 km/h 16 km/h 66% 0.00 mm 579.80 W/m2
11:39 34.0 °C 26.0 °C 1011.2 hPa West 16 km/h 24 km/h 65% 0.00 mm 578.35 W/m2
11:44 34.0 °C 26.0 °C 1011.2 hPa SSW 10 km/h 12 km/h 66% 0.00 mm 550.43 W/m2
11:49 34.0 °C 26.0 °C 1010.8 hPa SSE 12 km/h 16 km/h 65% 0.00 mm 553.57 W/m2
11:54 34.0 °C 26.0 °C 1010.8 hPa NW 14 km/h 20 km/h 65% 0.00 mm 528.12 W/m2
11:59 34.0 °C 26.0 °C 1010.8 hPa WNW 13 km/h 16 km/h 66% 0.00 mm 521.96 W/m2
12:04 34.0 °C 26.0 °C 1010.5 hPa WSW 15 km/h 20 km/h 65% 0.00 mm 529.05 W/m2
12:09 34.0 °C 26.0 °C 1010.5 hPa WNW 12 km/h 16 km/h 65% 0.00 mm 536.17 W/m2
12:14 35.0 °C 27.0 °C 1010.2 hPa SSW 12 km/h 16 km/h 65% 0.00 mm 523.67 W/m2
12:19 35.0 °C 26.0 °C 1010.2 hPa WSW 12 km/h 20 km/h 63% 0.00 mm 539.33 W/m2
12:24 35.0 °C 27.0 °C 1010.2 hPa NW 10 km/h 12 km/h 63% 0.00 mm 545.64 W/m2
12:29 35.0 °C 27.0 °C 1010.2 hPa South 8 km/h 12 km/h 62% 0.00 mm 558.83 W/m2
12:34 35.0 °C 27.0 °C 1009.8 hPa South 10 km/h 12 km/h 62% 0.00 mm 617.99 W/m2
12:39 35.0 °C 27.0 °C 1009.8 hPa West 11 km/h 16 km/h 62% 0.00 mm 611.46 W/m2
12:44 35.0 °C 27.0 °C 1009.8 hPa WNW 11 km/h 16 km/h 63% 0.00 mm 616.64 W/m2
12:49 35.0 °C 27.0 °C 1009.8 hPa West 15 km/h 16 km/h 63% 0.00 mm 629.37 W/m2
12:54 35.0 °C 27.0 °C 1009.5 hPa NW 11 km/h 16 km/h 64% 0.00 mm 354.31 W/m2
12:59 34.0 °C 26.0 °C 1009.5 hPa SSE 8 km/h 12 km/h 65% 0.00 mm 203.88 W/m2
13:04 34.0 °C 26.0 °C 1009.5 hPa SSW 10 km/h 12 km/h 65% 0.00 mm 344.25 W/m2
13:09 35.0 °C 27.0 °C 1009.5 hPa SSW 10 km/h 12 km/h 66% 0.00 mm 551.83 W/m2
13:14 35.0 °C 27.0 °C 1009.5 hPa South 11 km/h 12 km/h 63% 0.00 mm 560.81 W/m2
13:19 35.0 °C 27.0 °C 1009.1 hPa South 13 km/h 16 km/h 63% 0.00 mm 574.34 W/m2
13:24 35.0 °C 27.0 °C 1009.1 hPa South 8 km/h 12 km/h 62% 0.00 mm 582.00 W/m2
13:29 36.0 °C 27.0 °C 1009.1 hPa SSW 10 km/h 12 km/h 62% 0.00 mm 551.22 W/m2
13:34 36.0 °C 27.0 °C 1009.1 hPa West 9 km/h 12 km/h 60% 0.00 mm 548.09 W/m2
13:39 36.0 °C 27.0 °C 1009.1 hPa South 13 km/h 20 km/h 60% 0.00 mm 554.79 W/m2
13:44 36.0 °C 27.0 °C 1008.8 hPa WSW 15 km/h 20 km/h 61% 0.00 mm 553.10 W/m2
13:49 36.0 °C 27.0 °C 1008.8 hPa South 17 km/h 20 km/h 60% 0.00 mm 573.95 W/m2
13:54 36.0 °C 27.0 °C 1008.8 hPa West 12 km/h 16 km/h 59% 0.00 mm 591.44 W/m2
13:59 36.0 °C 27.0 °C 1008.8 hPa SW 15 km/h 20 km/h 61% 0.00 mm 584.64 W/m2
14:04 36.0 °C 27.0 °C 1008.8 hPa SW 12 km/h 12 km/h 61% 0.00 mm 574.46 W/m2
14:09 36.0 °C 27.0 °C 1008.8 hPa SSW 17 km/h 20 km/h 62% 0.00 mm 571.92 W/m2
14:14 36.0 °C 27.0 °C 1008.5 hPa South 13 km/h 16 km/h 62% 0.00 mm 562.40 W/m2
14:19 36.0 °C 27.0 °C 1008.5 hPa SW 9 km/h 12 km/h 60% 0.00 mm 561.76 W/m2
14:24 36.0 °C 27.0 °C 1008.1 hPa South 10 km/h 12 km/h 60% 0.00 mm 564.33 W/m2
14:29 37.0 °C 27.0 °C 1008.1 hPa South 12 km/h 16 km/h 59% 0.00 mm 568.57 W/m2
14:34 36.0 °C 27.0 °C 1008.5 hPa South 13 km/h 16 km/h 60% 0.00 mm 549.97 W/m2
14:39 36.0 °C 27.0 °C 1008.1 hPa West 10 km/h 12 km/h 60% 0.00 mm 565.92 W/m2
14:44 36.0 °C 27.0 °C 1007.8 hPa South 14 km/h 16 km/h 60% 0.00 mm 538.40 W/m2
14:49 36.0 °C 27.0 °C 1008.1 hPa SSE 16 km/h 20 km/h 62% 0.00 mm 538.57 W/m2
14:54 36.0 °C 27.0 °C 1007.8 hPa South 8 km/h 12 km/h 62% 0.00 mm 376.57 W/m2
14:59 35.0 °C 27.0 °C 1007.8 hPa SSE 20 km/h 24 km/h 63% 0.00 mm 503.34 W/m2
15:04 35.0 °C 27.0 °C 1007.5 hPa SE 14 km/h 20 km/h 63% 0.00 mm 474.46 W/m2
15:09 36.0 °C 27.0 °C 1007.5 hPa ESE 12 km/h 16 km/h 61% 0.00 mm 480.73 W/m2
15:14 35.0 °C 26.0 °C 1007.5 hPa SSE 14 km/h 16 km/h 60% 0.00 mm 474.64 W/m2
15:19 36.0 °C 26.0 °C 1007.5 hPa SSE 19 km/h 24 km/h 61% 0.00 mm 464.04 W/m2
15:24 35.0 °C 26.0 °C 1007.5 hPa SSE 21 km/h 24 km/h 61% 0.00 mm 478.48 W/m2
15:29 36.0 °C 27.0 °C 1007.5 hPa SSE 12 km/h 16 km/h 60% 0.00 mm 476.01 W/m2
15:34 36.0 °C 26.0 °C 1007.5 hPa SE 13 km/h 16 km/h 58% 0.00 mm 482.59 W/m2
15:39 36.0 °C 26.0 °C 1007.5 hPa SE 22 km/h 24 km/h 59% 0.00 mm 470.84 W/m2
15:44 36.0 °C 26.0 °C 1007.5 hPa SE 16 km/h 20 km/h 58% 0.00 mm 457.53 W/m2
15:49 37.0 °C 26.0 °C 1007.5 hPa SE 23 km/h 32 km/h 59% 0.00 mm 435.49 W/m2
15:54 36.0 °C 26.0 °C 1007.1 hPa SE 28 km/h 32 km/h 58% 0.00 mm 433.95 W/m2
15:59 35.0 °C 26.0 °C 1007.1 hPa SE 21 km/h 24 km/h 60% 0.00 mm 379.70 W/m2
16:04 35.0 °C 26.0 °C 1007.1 hPa ESE 21 km/h 24 km/h 60% 0.00 mm 369.38 W/m2
16:09 35.0 °C 26.0 °C 1007.1 hPa ESE 20 km/h 24 km/h 61% 0.00 mm 340.48 W/m2
16:14 35.0 °C 26.0 °C 1007.1 hPa SE 22 km/h 28 km/h 61% 0.00 mm 345.23 W/m2
16:19 35.0 °C 26.0 °C 1007.1 hPa SE 28 km/h 32 km/h 62% 0.00 mm 326.66 W/m2
16:24 35.0 °C 26.0 °C 1007.1 hPa SE 19 km/h 24 km/h 61% 0.00 mm 303.00 W/m2
16:29 35.0 °C 26.0 °C 1007.1 hPa ESE 18 km/h 20 km/h 61% 0.00 mm 300.50 W/m2
16:34 35.0 °C 26.0 °C 1007.5 hPa ESE 14 km/h 20 km/h 61% 0.00 mm 218.10 W/m2
16:39 35.0 °C 26.0 °C 1007.5 hPa ESE 19 km/h 24 km/h 61% 0.00 mm 270.99 W/m2
16:44 35.0 °C 26.0 °C 1007.5 hPa SE 19 km/h 24 km/h 61% 0.00 mm 251.03 W/m2
16:49 35.0 °C 26.0 °C 1007.5 hPa SE 18 km/h 20 km/h 61% 0.00 mm 247.11 W/m2
16:54 35.0 °C 26.0 °C 1007.5 hPa SE 23 km/h 32 km/h 62% 0.00 mm 210.02 W/m2
16:59 35.0 °C 26.0 °C 1007.5 hPa SE 14 km/h 20 km/h 61% 0.00 mm 167.38 W/m2
17:04 34.0 °C 26.0 °C 1007.5 hPa SE 17 km/h 20 km/h 62% 0.00 mm 163.61 W/m2
17:09 35.0 °C 26.0 °C 1007.5 hPa ESE 11 km/h 16 km/h 62% 0.00 mm 144.23 W/m2
17:14 34.0 °C 26.0 °C 1007.5 hPa ESE 13 km/h 16 km/h 62% 0.00 mm 132.27 W/m2
17:19 34.0 °C 26.0 °C 1007.8 hPa SE 18 km/h 24 km/h 61% 0.00 mm 87.37 W/m2
17:24 34.0 °C 26.0 °C 1007.8 hPa ESE 13 km/h 20 km/h 61% 0.00 mm 76.24 W/m2
17:29 34.0 °C 26.0 °C 1007.8 hPa SE 24 km/h 32 km/h 62% 0.00 mm 69.31 W/m2
17:34 34.0 °C 26.0 °C 1007.8 hPa SE 17 km/h 20 km/h 62% 0.00 mm 54.65 W/m2
17:39 34.0 °C 25.0 °C 1007.8 hPa SE 20 km/h 24 km/h 62% 0.00 mm 44.40 W/m2
17:44 34.0 °C 26.0 °C 1007.8 hPa SE 12 km/h 12 km/h 63% 0.00 mm 35.99 W/m2
17:49 34.0 °C 26.0 °C 1007.8 hPa East 9 km/h 12 km/h 64% 0.00 mm 28.69 W/m2
17:54 34.0 °C 26.0 °C 1007.8 hPa ESE 9 km/h 12 km/h 65% 0.00 mm 21.36 W/m2
17:59 34.0 °C 26.0 °C 1007.8 hPa ESE 10 km/h 16 km/h 65% 0.00 mm 14.00 W/m2
18:04 33.0 °C 26.0 °C 1008.1 hPa NNW 9 km/h 12 km/h 66% 0.00 mm 8.74 W/m2
18:09 33.0 °C 26.0 °C 1008.5 hPa NE 10 km/h 16 km/h 66% 0.00 mm 4.60 W/m2
18:14 33.0 °C 26.0 °C 1008.5 hPa NE 6 km/h 12 km/h 66% 0.00 mm 1.35 W/m2
18:19 33.0 °C 26.0 °C 1008.5 hPa NE 5 km/h 8 km/h 66% 0.00 mm 0.00 W/m2
18:24 33.0 °C 26.0 °C 1008.5 hPa NE 3 km/h 8 km/h 66% 0.00 mm 0.00 W/m2
18:29 33.0 °C 26.0 °C 1008.5 hPa ESE 4 km/h 4 km/h 66% 0.00 mm 0.00 W/m2
18:34 33.0 °C 26.0 °C 1008.5 hPa East 4 km/h 8 km/h 67% 0.00 mm 0.00 W/m2
18:39 33.0 °C 26.0 °C 1008.8 hPa East 5 km/h 12 km/h 67% 0.00 mm 0.00 W/m2
18:44 33.0 °C 26.0 °C 1008.8 hPa East 10 km/h 12 km/h 67% 0.00 mm 0.00 W/m2
18:49 33.0 °C 26.0 °C 1008.8 hPa SE 5 km/h 8 km/h 67% 0.00 mm 0.00 W/m2
18:54 33.0 °C 26.0 °C 1008.8 hPa ESE 8 km/h 12 km/h 67% 0.00 mm 0.00 W/m2
18:59 33.0 °C 26.0 °C 1009.1 hPa ESE 9 km/h 12 km/h 67% 0.00 mm 0.00 W/m2
19:04 33.0 °C 26.0 °C 1009.1 hPa ESE 5 km/h 8 km/h 68% 0.00 mm 0.00 W/m2
19:09 32.0 °C 26.0 °C 1009.1 hPa East 3 km/h 4 km/h 68% 0.00 mm 0.00 W/m2
19:14 32.0 °C 26.0 °C 1008.8 hPa East 4 km/h 4 km/h 68% 0.00 mm 0.00 W/m2
19:19 32.0 °C 26.0 °C 1008.8 hPa ESE 5 km/h 8 km/h 68% 0.00 mm 0.00 W/m2
19:24 32.0 °C 26.0 °C 1009.1 hPa ESE 5 km/h 8 km/h 68% 0.00 mm 0.00 W/m2
19:29 32.0 °C 26.0 °C 1009.1 hPa ESE 10 km/h 12 km/h 68% 0.00 mm 0.00 W/m2
19:34 32.0 °C 26.0 °C 1009.1 hPa ESE 10 km/h 16 km/h 68% 0.00 mm 0.00 W/m2
19:39 32.0 °C 26.0 °C 1009.1 hPa ESE 14 km/h 16 km/h 68% 0.00 mm 0.00 W/m2
19:44 32.0 °C 26.0 °C 1009.1 hPa ESE 6 km/h 8 km/h 68% 0.00 mm 0.00 W/m2
19:49 32.0 °C 25.0 °C 1009.1 hPa ESE 10 km/h 12 km/h 68% 0.00 mm 0.00 W/m2
19:54 32.0 °C 25.0 °C 1009.5 hPa East 8 km/h 12 km/h 68% 0.00 mm 0.00 W/m2
19:59 32.0 °C 25.0 °C 1009.5 hPa SE 9 km/h 16 km/h 68% 0.00 mm 0.00 W/m2
20:04 32.0 °C 25.0 °C 1009.5 hPa ESE 9 km/h 12 km/h 69% 0.00 mm 0.00 W/m2
20:09 32.0 °C 25.0 °C 1009.8 hPa SE 9 km/h 12 km/h 69% 0.00 mm 0.00 W/m2
20:14 32.0 °C 25.0 °C 1009.5 hPa SE 8 km/h 8 km/h 69% 0.00 mm 0.00 W/m2
20:19 32.0 °C 25.0 °C 1009.5 hPa ESE 10 km/h 12 km/h 69% 0.00 mm 0.00 W/m2
20:24 31.0 °C 25.0 °C 1009.8 hPa SE 10 km/h 12 km/h 70% 0.00 mm 0.00 W/m2
20:29 31.0 °C 25.0 °C 1009.8 hPa ESE 8 km/h 12 km/h 70% 0.00 mm 0.00 W/m2
20:34 31.0 °C 25.0 °C 1010.2 hPa SE 8 km/h 12 km/h 70% 0.00 mm 0.00 W/m2
20:39 31.0 °C 25.0 °C 1009.8 hPa ESE 7 km/h 8 km/h 70% 0.00 mm 0.00 W/m2
20:44 31.0 °C 25.0 °C 1010.2 hPa ESE 10 km/h 12 km/h 70% 0.00 mm 0.00 W/m2
20:49 31.0 °C 25.0 °C 1010.2 hPa ESE 12 km/h 12 km/h 70% 0.00 mm 0.00 W/m2
20:54 31.0 °C 25.0 °C 1010.2 hPa ESE 8 km/h 12 km/h 70% 0.00 mm 0.00 W/m2
20:59 31.0 °C 25.0 °C 1010.2 hPa SE 8 km/h 8 km/h 70% 0.00 mm 0.00 W/m2
21:04 31.0 °C 25.0 °C 1010.5 hPa East 11 km/h 12 km/h 70% 0.00 mm 0.00 W/m2
21:09 31.0 °C 25.0 °C 1010.5 hPa SE 6 km/h 12 km/h 70% 0.00 mm 0.00 W/m2
21:14 31.0 °C 25.0 °C 1010.5 hPa ESE 6 km/h 8 km/h 71% 0.00 mm 0.00 W/m2
21:19 31.0 °C 25.0 °C 1010.5 hPa SE 11 km/h 12 km/h 71% 0.00 mm 0.00 W/m2
21:24 31.0 °C 25.0 °C 1010.5 hPa SE 7 km/h 8 km/h 72% 0.00 mm 0.00 W/m2
21:29 31.0 °C 25.0 °C 1010.5 hPa SE 9 km/h 12 km/h 72% 0.00 mm 0.00 W/m2
21:34 31.0 °C 25.0 °C 1010.5 hPa SE 9 km/h 12 km/h 72% 0.00 mm 0.00 W/m2
21:39 31.0 °C 25.0 °C 1010.8 hPa SE 8 km/h 12 km/h 73% 0.00 mm 0.00 W/m2
21:44 31.0 °C 25.0 °C 1010.5 hPa SE 10 km/h 12 km/h 73% 0.00 mm 0.00 W/m2
21:49 31.0 °C 25.0 °C 1010.8 hPa SE 10 km/h 12 km/h 73% 0.00 mm 0.00 W/m2
21:54 31.0 °C 25.0 °C 1010.8 hPa SE 9 km/h 12 km/h 73% 0.00 mm 0.00 W/m2
21:59 30.0 °C 25.0 °C 1010.8 hPa SSE 9 km/h 12 km/h 74% 0.00 mm 0.00 W/m2
22:04 30.0 °C 25.0 °C 1010.8 hPa SE 10 km/h 12 km/h 74% 0.00 mm 0.00 W/m2
22:09 30.0 °C 25.0 °C 1010.8 hPa SE 8 km/h 12 km/h 74% 0.00 mm 0.00 W/m2
22:14 30.0 °C 25.0 °C 1010.8 hPa East 4 km/h 8 km/h 74% 0.00 mm 0.00 W/m2
22:19 30.0 °C 25.0 °C 1010.8 hPa SE 5 km/h 8 km/h 74% 0.00 mm 0.00 W/m2
22:24 30.0 °C 25.0 °C 1010.8 hPa East 2 km/h 4 km/h 74% 0.00 mm 0.00 W/m2
22:29 30.0 °C 25.0 °C 1010.8 hPa East 5 km/h 8 km/h 73% 0.00 mm 0.00 W/m2
22:34 30.0 °C 25.0 °C 1010.8 hPa SE 10 km/h 16 km/h 73% 0.00 mm 0.00 W/m2
22:39 30.0 °C 25.0 °C 1010.8 hPa ESE 10 km/h 12 km/h 73% 0.00 mm 0.00 W/m2
22:44 30.0 °C 25.0 °C 1010.8 hPa ESE 6 km/h 8 km/h 73% 0.00 mm 0.00 W/m2
22:49 30.0 °C 25.0 °C 1010.8 hPa SE 10 km/h 12 km/h 74% 0.00 mm 0.00 W/m2
22:54 30.0 °C 25.0 °C 1010.8 hPa SSE 7 km/h 8 km/h 74% 0.00 mm 0.00 W/m2
22:59 30.0 °C 25.0 °C 1010.8 hPa SE 6 km/h 8 km/h 74% 0.00 mm 0.00 W/m2
23:04 30.0 °C 25.0 °C 1010.8 hPa ESE 1 km/h 4 km/h 74% 0.00 mm 0.00 W/m2
23:09 30.0 °C 25.0 °C 1011.2 hPa Calm     74% 0.00 mm 0.00 W/m2
23:14 30.0 °C 25.0 °C 1011.2 hPa Calm     74% 0.00 mm 0.00 W/m2
23:19 30.0 °C 25.0 °C 1011.2 hPa Calm     74% 0.00 mm 0.00 W/m2
23:24 30.0 °C 25.0 °C 1010.8 hPa Calm     74% 0.00 mm 0.00 W/m2
23:29 30.0 °C 25.0 °C 1010.8 hPa Calm     74% 0.00 mm 0.00 W/m2
23:34 30.0 °C 25.0 °C 1010.8 hPa Calm     73% 0.00 mm 0.00 W/m2
23:39 30.0 °C 25.0 °C 1010.8 hPa Calm     75% 0.00 mm 0.00 W/m2
23:44 30.0 °C 25.0 °C 1010.8 hPa NW 5 km/h 8 km/h 76% 0.00 mm 0.00 W/m2
23:49 29.0 °C 25.0 °C 1010.5 hPa NNE 1 km/h 4 km/h 76% 0.00 mm 0.00 W/m2
23:54 29.0 °C 25.0 °C 1010.5 hPa Calm     76% 0.00 mm 0.00 W/m2
23:59 29.0 °C 25.0 °C 1010.5 hPa North 2 km/h 4 km/h 76% 0.00 mm 0.00 W/m2
PIMOHWEATHER Philippines
Compliments of Weather Underground - 2 mb